sensor_id;sensor_type;location;lat;lon;timestamp;pressure;altitude;pressure_sealevel;temperature;humidity
56811;BME280;42691;47.234;27.494;2022-12-07T00:01:05;99414.97;;;8.67;100.00
56811;BME280;42691;47.234;27.494;2022-12-07T00:03:31;99423.88;;;8.61;100.00
56811;BME280;42691;47.234;27.494;2022-12-07T00:05:59;99416.47;;;8.52;100.00
56811;BME280;42691;47.234;27.494;2022-12-07T00:08:25;99410.03;;;8.42;100.00
56811;BME280;42691;47.234;27.494;2022-12-07T00:10:51;99403.34;;;8.36;100.00
56811;BME280;42691;47.234;27.494;2022-12-07T00:13:16;99413.13;;;8.30;100.00
56811;BME280;42691;47.234;27.494;2022-12-07T00:15:42;99410.66;;;8.27;100.00
56811;BME280;42691;47.234;27.494;2022-12-07T00:18:07;99410.94;;;8.21;100.00
56811;BME280;42691;47.234;27.494;2022-12-07T00:20:32;99421.28;;;8.21;100.00
56811;BME280;42691;47.234;27.494;2022-12-07T00:22:58;99413.75;;;8.14;100.00
56811;BME280;42691;47.234;27.494;2022-12-07T00:25:24;99401.97;;;8.07;100.00
56811;BME280;42691;47.234;27.494;2022-12-07T00:27:49;99412.25;;;8.09;100.00
56811;BME280;42691;47.234;27.494;2022-12-07T00:30:15;99418.94;;;8.14;100.00
56811;BME280;42691;47.234;27.494;2022-12-07T00:32:40;99421.16;;;8.24;100.00
56811;BME280;42691;47.234;27.494;2022-12-07T00:35:06;99412.47;;;8.25;100.00
56811;BME280;42691;47.234;27.494;2022-12-07T00:37:31;99414.16;;;8.26;100.00
56811;BME280;42691;47.234;27.494;2022-12-07T00:39:57;99415.13;;;8.23;100.00
56811;BME280;42691;47.234;27.494;2022-12-07T00:42:22;99416.13;;;8.21;100.00
56811;BME280;42691;47.234;27.494;2022-12-07T00:44:48;99410.19;;;8.17;100.00
56811;BME280;42691;47.234;27.494;2022-12-07T00:47:13;99403.59;;;8.10;100.00
56811;BME280;42691;47.234;27.494;2022-12-07T00:49:38;99401.84;;;8.10;100.00
56811;BME280;42691;47.234;27.494;2022-12-07T00:52:04;99399.38;;;8.07;100.00
56811;BME280;42691;47.234;27.494;2022-12-07T00:54:29;99398.81;;;8.01;100.00
56811;BME280;42691;47.234;27.494;2022-12-07T00:56:55;99397.44;;;7.92;100.00
56811;BME280;42691;47.234;27.494;2022-12-07T00:59:20;99387.72;;;7.97;100.00
56811;BME280;42691;47.234;27.494;2022-12-07T01:01:46;99394.59;;;7.98;100.00
56811;BME280;42691;47.234;27.494;2022-12-07T01:04:11;99389.53;;;7.95;100.00
56811;BME280;42691;47.234;27.494;2022-12-07T01:06:36;99389.34;;;8.00;100.00
56811;BME280;42691;47.234;27.494;2022-12-07T01:09:02;99391.81;;;8.03;100.00
56811;BME280;42691;47.234;27.494;2022-12-07T01:11:30;99376.97;;;8.06;100.00
56811;BME280;42691;47.234;27.494;2022-12-07T01:13:57;99386.34;;;8.09;100.00
56811;BME280;42691;47.234;27.494;2022-12-07T01:16:24;99365.19;;;7.99;100.00
56811;BME280;42691;47.234;27.494;2022-12-07T01:18:52;99392.13;;;8.15;100.00
56811;BME280;42691;47.234;27.494;2022-12-07T01:21:22;99386.00;;;8.18;100.00
56811;BME280;42691;47.234;27.494;2022-12-07T01:23:48;99392.00;;;8.19;100.00
56811;BME280;42691;47.234;27.494;2022-12-07T01:26:17;99390.19;;;8.21;100.00
56811;BME280;42691;47.234;27.494;2022-12-07T01:28:43;99378.16;;;8.20;100.00
56811;BME280;42691;47.234;27.494;2022-12-07T01:31:12;99375.34;;;8.24;100.00
56811;BME280;42691;47.234;27.494;2022-12-07T01:33:40;99371.84;;;8.25;100.00
56811;BME280;42691;47.234;27.494;2022-12-07T01:36:12;99363.09;;;8.28;100.00
56811;BME280;42691;47.234;27.494;2022-12-07T01:38:38;99358.69;;;8.30;100.00
56811;BME280;42691;47.234;27.494;2022-12-07T01:41:03;99358.56;;;8.33;100.00
56811;BME280;42691;47.234;27.494;2022-12-07T01:43:30;99347.31;;;8.34;100.00
56811;BME280;42691;47.234;27.494;2022-12-07T01:45:56;99363.38;;;8.42;100.00
56811;BME280;42691;47.234;27.494;2022-12-07T01:48:36;99353.75;;;8.44;100.00
56811;BME280;42691;47.234;27.494;2022-12-07T01:51:10;99339.41;;;8.37;100.00
56811;BME280;42691;47.234;27.494;2022-12-07T01:53:38;99350.25;;;8.45;100.00
56811;BME280;42691;47.234;27.494;2022-12-07T01:56:08;99337.16;;;8.48;100.00
56811;BME280;42691;47.234;27.494;2022-12-07T01:58:35;99335.47;;;8.47;100.00
56811;BME280;42691;47.234;27.494;2022-12-07T02:01:02;99333.94;;;8.43;100.00
56811;BME280;42691;47.234;27.494;2022-12-07T02:03:33;99326.88;;;8.46;100.00
56811;BME280;42691;47.234;27.494;2022-12-07T02:06:00;99329.06;;;8.56;100.00
56811;BME280;42691;47.234;27.494;2022-12-07T02:08:25;99337.25;;;8.65;100.00
56811;BME280;42691;47.234;27.494;2022-12-07T02:10:51;99333.47;;;8.72;100.00
56811;BME280;42691;47.234;27.494;2022-12-07T02:13:22;99327.22;;;8.76;100.00
56811;BME280;42691;47.234;27.494;2022-12-07T02:24:14;99323.34;;;9.04;100.00
56811;BME280;42691;47.234;27.494;2022-12-07T02:29:45;99322.97;;;9.12;100.00
56811;BME280;42691;47.234;27.494;2022-12-07T02:32:16;99315.25;;;9.10;100.00
56811;BME280;42691;47.234;27.494;2022-12-07T02:34:51;99320.00;;;9.19;100.00
56811;BME280;42691;47.234;27.494;2022-12-07T02:43:06;99338.38;;;9.33;100.00
56811;BME280;42691;47.234;27.494;2022-12-07T02:45:35;99337.69;;;9.30;100.00
56811;BME280;42691;47.234;27.494;2022-12-07T02:48:02;99337.53;;;9.33;100.00
56811;BME280;42691;47.234;27.494;2022-12-07T02:50:29;99338.22;;;9.36;100.00
56811;BME280;42691;47.234;27.494;2022-12-07T02:52:54;99341.72;;;9.35;100.00
56811;BME280;42691;47.234;27.494;2022-12-07T02:55:29;99338.22;;;9.36;100.00
56811;BME280;42691;47.234;27.494;2022-12-07T03:03:24;99345.09;;;9.37;100.00
56811;BME280;42691;47.234;27.494;2022-12-07T03:06:10;99340.75;;;9.38;100.00
56811;BME280;42691;47.234;27.494;2022-12-07T03:11:31;99333.19;;;9.33;100.00
56811;BME280;42691;47.234;27.494;2022-12-07T03:19:04;99329.81;;;9.31;100.00
56811;BME280;42691;47.234;27.494;2022-12-07T03:21:37;99342.97;;;9.46;100.00
56811;BME280;42691;47.234;27.494;2022-12-07T03:24:08;99341.28;;;9.45;100.00
56811;BME280;42691;47.234;27.494;2022-12-07T03:26:40;99343.66;;;9.49;100.00
56811;BME280;42691;47.234;27.494;2022-12-07T03:29:16;99344.34;;;9.53;100.00
56811;BME280;42691;47.234;27.494;2022-12-07T03:31:49;99339.97;;;9.53;100.00
56811;BME280;42691;47.234;27.494;2022-12-07T03:34:34;99336.47;;;9.54;100.00
56811;BME280;42691;47.234;27.494;2022-12-07T03:37:08;99341.66;;;9.54;100.00
56811;BME280;42691;47.234;27.494;2022-12-07T03:39:43;99344.19;;;9.56;100.00
56811;BME280;42691;47.234;27.494;2022-12-07T03:42:10;99339.75;;;9.58;100.00
56811;BME280;42691;47.234;27.494;2022-12-07T03:44:37;99332.13;;;9.55;100.00
56811;BME280;42691;47.234;27.494;2022-12-07T03:47:08;99344.03;;;9.59;100.00
56811;BME280;42691;47.234;27.494;2022-12-07T03:49:50;99327.38;;;9.46;100.00
56811;BME280;42691;47.234;27.494;2022-12-07T03:52:38;99346.63;;;9.59;100.00
56811;BME280;42691;47.234;27.494;2022-12-07T03:55:22;99342.88;;;9.64;100.00
56811;BME280;42691;47.234;27.494;2022-12-07T03:57:52;99343.78;;;9.63;100.00
56811;BME280;42691;47.234;27.494;2022-12-07T04:00:19;99345.47;;;9.64;100.00
56811;BME280;42691;47.234;27.494;2022-12-07T04:02:45;99342.88;;;9.64;100.00
56811;BME280;42691;47.234;27.494;2022-12-07T04:05:11;99342.81;;;9.66;100.00
56811;BME280;42691;47.234;27.494;2022-12-07T04:07:36;99336.72;;;9.67;100.00
56811;BME280;42691;47.234;27.494;2022-12-07T04:10:03;99330.31;;;9.74;100.00
56811;BME280;42691;47.234;27.494;2022-12-07T04:12:29;99331.06;;;9.76;100.00
56811;BME280;42691;47.234;27.494;2022-12-07T04:14:54;99330.75;;;9.82;100.00
56811;BME280;42691;47.234;27.494;2022-12-07T04:17:20;99320.72;;;9.92;100.00
56811;BME280;42691;47.234;27.494;2022-12-07T04:19:45;99324.91;;;9.94;100.00
56811;BME280;42691;47.234;27.494;2022-12-07T04:22:11;99329.19;;;9.95;100.00
56811;BME280;42691;47.234;27.494;2022-12-07T04:24:36;99328.28;;;9.96;100.00
56811;BME280;42691;47.234;27.494;2022-12-07T04:27:02;99326.69;;;9.94;100.00
56811;BME280;42691;47.234;27.494;2022-12-07T04:29:28;99319.47;;;9.99;100.00
56811;BME280;42691;47.234;27.494;2022-12-07T04:31:54;99316.97;;;9.97;100.00
56811;BME280;42691;47.234;27.494;2022-12-07T04:34:20;99319.31;;;10.02;100.00
56811;BME280;42691;47.234;27.494;2022-12-07T04:36:46;99319.13;;;10.07;100.00
56811;BME280;42691;47.234;27.494;2022-12-07T04:39:31;99314.59;;;10.10;100.00
56811;BME280;42691;47.234;27.494;2022-12-07T04:41:58;99313.44;;;10.16;100.00
56811;BME280;42691;47.234;27.494;2022-12-07T04:44:24;99310.91;;;10.14;100.00
56811;BME280;42691;47.234;27.494;2022-12-07T04:46:50;99311.59;;;10.18;100.00
56811;BME280;42691;47.234;27.494;2022-12-07T04:49:16;99308.47;;;10.11;100.00
56811;BME280;42691;47.234;27.494;2022-12-07T04:51:43;99324.81;;;10.13;100.00
56811;BME280;42691;47.234;27.494;2022-12-07T04:54:08;99318.94;;;10.10;100.00
56811;BME280;42691;47.234;27.494;2022-12-07T04:56:34;99316.72;;;10.02;100.00
56811;BME280;42691;47.234;27.494;2022-12-07T04:59:00;99335.63;;;10.06;100.00
56811;BME280;42691;47.234;27.494;2022-12-07T05:01:26;99322.56;;;10.07;100.00
56811;BME280;42691;47.234;27.494;2022-12-07T05:03:52;99329.50;;;10.07;100.00
56811;BME280;42691;47.234;27.494;2022-12-07T05:06:17;99320.03;;;10.06;100.00
56811;BME280;42691;47.234;27.494;2022-12-07T05:08:43;99324.47;;;10.03;100.00
56811;BME280;42691;47.234;27.494;2022-12-07T05:11:09;99330.72;;;9.99;100.00
56811;BME280;42691;47.234;27.494;2022-12-07T05:13:55;99331.94;;;9.92;100.00
56811;BME280;42691;47.234;27.494;2022-12-07T05:16:20;99333.94;;;9.87;100.00
56811;BME280;42691;47.234;27.494;2022-12-07T05:18:46;99337.63;;;9.83;100.00
56811;BME280;42691;47.234;27.494;2022-12-07T05:21:11;99332.66;;;9.79;100.00
56811;BME280;42691;47.234;27.494;2022-12-07T05:23:36;99338.78;;;9.78;100.00
56811;BME280;42691;47.234;27.494;2022-12-07T05:26:02;99343.75;;;9.82;100.00
56811;BME280;42691;47.234;27.494;2022-12-07T05:28:27;99314.22;;;9.66;100.00
56811;BME280;42691;47.234;27.494;2022-12-07T05:30:53;99346.03;;;9.88;100.00
56811;BME280;42691;47.234;27.494;2022-12-07T05:33:18;99355.50;;;9.89;100.00
56811;BME280;42691;47.234;27.494;2022-12-07T05:35:44;99353.75;;;9.90;100.00
56811;BME280;42691;47.234;27.494;2022-12-07T05:38:10;99344.34;;;9.87;100.00
56811;BME280;42691;47.234;27.494;2022-12-07T05:40:36;99356.19;;;9.93;100.00
56811;BME280;42691;47.234;27.494;2022-12-07T05:43:02;99350.81;;;9.96;100.00
56811;BME280;42691;47.234;27.494;2022-12-07T05:45:27;99350.66;;;9.99;100.00
56811;BME280;42691;47.234;27.494;2022-12-07T05:47:53;99353.25;;;9.99;100.00
56811;BME280;42691;47.234;27.494;2022-12-07T05:50:18;99344.03;;;9.93;100.00
56811;BME280;42691;47.234;27.494;2022-12-07T05:52:43;99346.69;;;9.92;100.00
56811;BME280;42691;47.234;27.494;2022-12-07T05:55:09;99347.69;;;9.89;100.00
56811;BME280;42691;47.234;27.494;2022-12-07T05:57:34;99351.13;;;9.90;100.00
56811;BME280;42691;47.234;27.494;2022-12-07T06:00:00;99350.16;;;9.92;100.00
56811;BME280;42691;47.234;27.494;2022-12-07T06:02:25;99352.75;;;9.92;100.00
56811;BME280;42691;47.234;27.494;2022-12-07T06:04:51;99350.06;;;9.94;100.00
56811;BME280;42691;47.234;27.494;2022-12-07T06:07:16;99351.97;;;9.90;100.00
56811;BME280;42691;47.234;27.494;2022-12-07T06:09:42;99352.50;;;9.97;100.00
56811;BME280;42691;47.234;27.494;2022-12-07T06:12:10;99349.91;;;9.97;100.00
56811;BME280;42691;47.234;27.494;2022-12-07T06:14:55;99337.16;;;9.92;100.00
56811;BME280;42691;47.234;27.494;2022-12-07T06:17:21;99347.06;;;10.01;100.00
56811;BME280;42691;47.234;27.494;2022-12-07T06:19:46;99347.63;;;10.08;100.00
56811;BME280;42691;47.234;27.494;2022-12-07T06:22:12;99346.63;;;10.11;100.00
56811;BME280;42691;47.234;27.494;2022-12-07T06:24:38;99352.59;;;10.13;100.00
56811;BME280;42691;47.234;27.494;2022-12-07T06:27:04;99347.53;;;10.10;100.00
56811;BME280;42691;47.234;27.494;2022-12-07T06:29:30;99345.03;;;10.08;100.00
56811;BME280;42691;47.234;27.494;2022-12-07T06:31:56;99344.09;;;10.09;100.00
56811;BME280;42691;47.234;27.494;2022-12-07T06:34:22;99346.63;;;10.11;100.00
56811;BME280;42691;47.234;27.494;2022-12-07T06:36:49;99349.31;;;10.09;100.00
56811;BME280;42691;47.234;27.494;2022-12-07T06:39:21;99342.34;;;10.10;100.00
56811;BME280;42691;47.234;27.494;2022-12-07T06:41:47;99325.22;;;10.06;100.00
56811;BME280;42691;47.234;27.494;2022-12-07T06:44:12;99327.34;;;10.15;100.00
56811;BME280;42691;47.234;27.494;2022-12-07T06:46:38;99334.69;;;10.24;100.00
56811;BME280;42691;47.234;27.494;2022-12-07T06:49:04;99323.53;;;10.22;100.00
56811;BME280;42691;47.234;27.494;2022-12-07T06:51:31;99323.38;;;10.25;100.00
56811;BME280;42691;47.234;27.494;2022-12-07T06:53:56;99330.16;;;10.60;100.00
56811;BME280;42691;47.234;27.494;2022-12-07T06:56:22;99334.25;;;10.64;100.00
56811;BME280;42691;47.234;27.494;2022-12-07T06:58:48;99334.09;;;10.68;100.00
56811;BME280;42691;47.234;27.494;2022-12-07T07:01:16;99332.34;;;10.68;100.00
56811;BME280;42691;47.234;27.494;2022-12-07T07:03:42;99333.69;;;10.75;100.00
56811;BME280;42691;47.234;27.494;2022-12-07T07:06:08;99334.50;;;10.76;100.00
56811;BME280;42691;47.234;27.494;2022-12-07T07:08:34;99340.97;;;10.69;100.00
56811;BME280;42691;47.234;27.494;2022-12-07T07:11:00;99334.44;;;10.93;100.00
56811;BME280;42691;47.234;27.494;2022-12-07T07:13:26;99330.25;;;10.90;100.00
56811;BME280;42691;47.234;27.494;2022-12-07T07:15:51;99323.94;;;10.94;100.00
56811;BME280;42691;47.234;27.494;2022-12-07T07:18:17;99316.06;;;10.96;100.00
56811;BME280;42691;47.234;27.494;2022-12-07T07:20:42;99307.66;;;10.91;100.00
56811;BME280;42691;47.234;27.494;2022-12-07T07:23:08;99319.47;;;11.12;100.00
56811;BME280;42691;47.234;27.494;2022-12-07T07:25:34;99327.06;;;11.17;100.00
56811;BME280;42691;47.234;27.494;2022-12-07T07:27:59;99323.25;;;11.22;100.00
56811;BME280;42691;47.234;27.494;2022-12-07T07:30:26;99310.25;;;11.22;100.00
56811;BME280;42691;47.234;27.494;2022-12-07T07:32:58;99331.47;;;11.31;100.00
56811;BME280;42691;47.234;27.494;2022-12-07T07:35:26;99336.69;;;11.31;100.00
56811;BME280;42691;47.234;27.494;2022-12-07T07:37:51;99330.31;;;11.20;100.00
56811;BME280;42691;47.234;27.494;2022-12-07T07:40:17;99336.03;;;11.27;100.00
56811;BME280;42691;47.234;27.494;2022-12-07T07:42:43;99337.69;;;11.28;100.00
56811;BME280;42691;47.234;27.494;2022-12-07T07:45:08;99336.94;;;11.26;100.00
56811;BME280;42691;47.234;27.494;2022-12-07T07:47:34;99338.53;;;11.28;100.00
56811;BME280;42691;47.234;27.494;2022-12-07T07:49:59;99348.94;;;11.28;100.00
56811;BME280;42691;47.234;27.494;2022-12-07T07:52:26;99352.41;;;11.29;100.00
56811;BME280;42691;47.234;27.494;2022-12-07T07:54:51;99348.13;;;11.28;100.00
56811;BME280;42691;47.234;27.494;2022-12-07T07:57:17;99359.84;;;11.35;100.00
56811;BME280;42691;47.234;27.494;2022-12-07T07:59:43;99354.47;;;11.38;100.00
56811;BME280;42691;47.234;27.494;2022-12-07T08:02:16;99365.56;;;11.42;100.00
56811;BME280;42691;47.234;27.494;2022-12-07T08:04:42;99364.63;;;11.43;100.00
56811;BME280;42691;47.234;27.494;2022-12-07T08:07:07;99360.34;;;11.42;100.00
56811;BME280;42691;47.234;27.494;2022-12-07T08:09:32;99366.31;;;11.44;100.00
56811;BME280;42691;47.234;27.494;2022-12-07T08:11:58;99362.94;;;11.42;100.00
56811;BME280;42691;47.234;27.494;2022-12-07T08:14:24;99367.31;;;11.41;100.00
56811;BME280;42691;47.234;27.494;2022-12-07T08:16:49;99369.94;;;11.41;100.00
56811;BME280;42691;47.234;27.494;2022-12-07T08:19:15;99359.59;;;11.40;100.00
56811;BME280;42691;47.234;27.494;2022-12-07T08:21:40;99357.16;;;11.37;100.00
56811;BME280;42691;47.234;27.494;2022-12-07T08:24:06;99353.63;;;11.38;100.00
56811;BME280;42691;47.234;27.494;2022-12-07T08:26:31;99351.78;;;11.40;100.00
56811;BME280;42691;47.234;27.494;2022-12-07T08:28:57;99350.31;;;11.50;100.00
56811;BME280;42691;47.234;27.494;2022-12-07T08:31:22;99344.63;;;11.59;100.00
56811;BME280;42691;47.234;27.494;2022-12-07T08:33:48;99343.91;;;11.71;100.00
56811;BME280;42691;47.234;27.494;2022-12-07T08:36:14;99327.50;;;11.69;100.00
56811;BME280;42691;47.234;27.494;2022-12-07T08:38:40;99341.25;;;11.87;100.00
56811;BME280;42691;47.234;27.494;2022-12-07T08:41:07;99348.84;;;11.92;100.00
56811;BME280;42691;47.234;27.494;2022-12-07T08:43:33;99349.50;;;11.95;100.00
56811;BME280;42691;47.234;27.494;2022-12-07T08:48:58;99350.63;;;12.05;100.00
56811;BME280;42691;47.234;27.494;2022-12-07T08:51:27;99347.00;;;12.08;100.00
56811;BME280;42691;47.234;27.494;2022-12-07T08:53:53;99347.91;;;12.07;100.00
56811;BME280;42691;47.234;27.494;2022-12-07T08:56:20;99346.63;;;12.14;100.00
56811;BME280;42691;47.234;27.494;2022-12-07T08:58:47;99345.22;;;12.08;100.00
56811;BME280;42691;47.234;27.494;2022-12-07T09:01:13;99338.97;;;12.11;100.00
56811;BME280;42691;47.234;27.494;2022-12-07T09:03:38;99343.63;;;12.20;100.00
56811;BME280;42691;47.234;27.494;2022-12-07T09:06:04;99336.56;;;12.22;100.00
56811;BME280;42691;47.234;27.494;2022-12-07T09:08:33;99335.19;;;12.31;100.00
56811;BME280;42691;47.234;27.494;2022-12-07T09:11:00;99335.66;;;12.37;100.00
56811;BME280;42691;47.234;27.494;2022-12-07T09:13:25;99339.94;;;12.38;100.00
56811;BME280;42691;47.234;27.494;2022-12-07T09:15:51;99327.28;;;12.32;100.00
56811;BME280;42691;47.234;27.494;2022-12-07T09:18:16;99331.38;;;12.36;100.00
56811;BME280;42691;47.234;27.494;2022-12-07T09:20:42;99319.34;;;12.34;100.00
56811;BME280;42691;47.234;27.494;2022-12-07T09:23:07;99341.78;;;12.50;100.00
56811;BME280;42691;47.234;27.494;2022-12-07T09:25:34;99340.28;;;12.46;100.00
56811;BME280;42691;47.234;27.494;2022-12-07T09:28:00;99332.56;;;12.45;100.00
56811;BME280;42691;47.234;27.494;2022-12-07T09:30:26;99328.94;;;12.47;100.00
56811;BME280;42691;47.234;27.494;2022-12-07T09:32:54;99329.47;;;12.52;100.00
56811;BME280;42691;47.234;27.494;2022-12-07T09:35:20;99319.25;;;12.49;100.00
56811;BME280;42691;47.234;27.494;2022-12-07T09:37:45;99325.75;;;12.57;100.00
56811;BME280;42691;47.234;27.494;2022-12-07T09:40:12;99323.53;;;12.65;100.00
56811;BME280;42691;47.234;27.494;2022-12-07T09:42:39;99306.09;;;12.51;100.00
56811;BME280;42691;47.234;27.494;2022-12-07T09:45:17;99321.75;;;12.65;100.00
56811;BME280;42691;47.234;27.494;2022-12-07T09:47:45;99322.75;;;12.77;100.00
56811;BME280;42691;47.234;27.494;2022-12-07T09:50:14;99316.44;;;12.67;100.00
56811;BME280;42691;47.234;27.494;2022-12-07T09:52:41;99326.09;;;12.79;100.00
56811;BME280;42691;47.234;27.494;2022-12-07T09:55:11;99320.69;;;12.82;100.00
56811;BME280;42691;47.234;27.494;2022-12-07T09:57:37;99328.53;;;12.82;100.00
56811;BME280;42691;47.234;27.494;2022-12-07T10:00:10;99317.03;;;12.84;100.00
56811;BME280;42691;47.234;27.494;2022-12-07T10:02:40;99319.47;;;12.88;100.00
56811;BME280;42691;47.234;27.494;2022-12-07T10:05:10;99307.72;;;12.80;100.00
56811;BME280;42691;47.234;27.494;2022-12-07T10:07:37;99309.56;;;12.93;100.00
56811;BME280;42691;47.234;27.494;2022-12-07T10:10:09;99300.06;;;12.92;100.00
56811;BME280;42691;47.234;27.494;2022-12-07T10:15:23;99312.47;;;12.88;100.00
56811;BME280;42691;47.234;27.494;2022-12-07T10:18:17;99310.06;;;12.85;100.00
56811;BME280;42691;47.234;27.494;2022-12-07T10:20:45;99311.72;;;12.86;100.00
56811;BME280;42691;47.234;27.494;2022-12-07T10:23:18;99307.88;;;12.92;100.00
56811;BME280;42691;47.234;27.494;2022-12-07T10:25:44;99294.19;;;12.88;100.00
56811;BME280;42691;47.234;27.494;2022-12-07T10:28:16;99300.69;;;12.95;100.00
56811;BME280;42691;47.234;27.494;2022-12-07T10:33:51;99286.22;;;12.77;100.00
56811;BME280;42691;47.234;27.494;2022-12-07T10:36:40;99310.28;;;12.95;100.00
56811;BME280;42691;47.234;27.494;2022-12-07T10:39:14;99318.97;;;12.95;100.00
56811;BME280;42691;47.234;27.494;2022-12-07T10:42:03;99318.03;;;12.96;100.00
56811;BME280;42691;47.234;27.494;2022-12-07T10:44:31;99310.94;;;12.98;100.00
56811;BME280;42691;47.234;27.494;2022-12-07T10:52:21;99313.44;;;13.00;100.00
56811;BME280;42691;47.234;27.494;2022-12-07T10:57:36;99311.78;;;12.99;100.00
56811;BME280;42691;47.234;27.494;2022-12-07T11:00:24;99314.47;;;12.97;100.00
56811;BME280;42691;47.234;27.494;2022-12-07T11:05:39;99308.44;;;12.97;100.00
56811;BME280;42691;47.234;27.494;2022-12-07T11:11:04;99297.88;;;12.98;100.00
56811;BME280;42691;47.234;27.494;2022-12-07T11:13:36;99299.50;;;13.01;100.00
56811;BME280;42691;47.234;27.494;2022-12-07T11:16:31;99301.16;;;13.02;100.00
56811;BME280;42691;47.234;27.494;2022-12-07T11:21:55;99309.72;;;13.04;100.00
56811;BME280;42691;47.234;27.494;2022-12-07T11:29:50;99329.06;;;13.01;100.00
56811;BME280;42691;47.234;27.494;2022-12-07T11:35:14;99328.28;;;12.99;100.00
56811;BME280;42691;47.234;27.494;2022-12-07T11:37:44;99331.66;;;13.01;100.00
56811;BME280;42691;47.234;27.494;2022-12-07T11:40:20;99331.72;;;13.00;100.00
56811;BME280;42691;47.234;27.494;2022-12-07T11:45:49;99323.06;;;12.99;100.00
56811;BME280;42691;47.234;27.494;2022-12-07T11:48:24;99310.69;;;12.89;100.00
56811;BME280;42691;47.234;27.494;2022-12-07T11:50:56;99318.22;;;12.93;100.00
56811;BME280;42691;47.234;27.494;2022-12-07T11:56:13;99317.84;;;12.99;100.00
56811;BME280;42691;47.234;27.494;2022-12-07T12:03:47;99309.84;;;13.02;100.00
56811;BME280;42691;47.234;27.494;2022-12-07T12:06:14;99308.91;;;13.03;100.00
56811;BME280;42691;47.234;27.494;2022-12-07T12:22:26;99304.59;;;13.02;100.00
56811;BME280;42691;47.234;27.494;2022-12-07T12:24:56;99299.38;;;13.02;100.00
56811;BME280;42691;47.234;27.494;2022-12-07T12:27:27;99295.09;;;13.01;100.00
56811;BME280;42691;47.234;27.494;2022-12-07T12:29:57;99296.78;;;13.02;100.00
56811;BME280;42691;47.234;27.494;2022-12-07T12:32:42;99306.28;;;13.03;100.00
56811;BME280;42691;47.234;27.494;2022-12-07T12:35:28;99303.84;;;13.00;100.00
56811;BME280;42691;47.234;27.494;2022-12-07T12:37:54;99300.31;;;13.01;100.00
56811;BME280;42691;47.234;27.494;2022-12-07T12:42:47;99300.50;;;12.98;100.00
56811;BME280;42691;47.234;27.494;2022-12-07T12:45:21;99302.38;;;12.96;100.00
56811;BME280;42691;47.234;27.494;2022-12-07T12:47:56;99302.38;;;12.96;100.00
56811;BME280;42691;47.234;27.494;2022-12-07T12:50:24;99293.59;;;12.97;100.00
56811;BME280;42691;47.234;27.494;2022-12-07T12:52:59;99299.66;;;12.98;100.00
56811;BME280;42691;47.234;27.494;2022-12-07T13:00:46;99303.94;;;12.99;100.00
56811;BME280;42691;47.234;27.494;2022-12-07T13:03:29;99310.94;;;12.98;100.00
56811;BME280;42691;47.234;27.494;2022-12-07T13:06:31;99309.25;;;12.97;100.00
56811;BME280;42691;47.234;27.494;2022-12-07T13:09:01;99307.59;;;12.96;100.00
56811;BME280;42691;47.234;27.494;2022-12-07T13:11:41;99300.69;;;12.95;100.00
56811;BME280;42691;47.234;27.494;2022-12-07T13:17:05;99302.25;;;12.98;100.00
56811;BME280;42691;47.234;27.494;2022-12-07T13:25:43;99309.47;;;12.94;100.00
56811;BME280;42691;47.234;27.494;2022-12-07T13:28:16;99307.78;;;12.93;100.00
56811;BME280;42691;47.234;27.494;2022-12-07T13:31:11;99317.38;;;12.93;100.00
56811;BME280;42691;47.234;27.494;2022-12-07T13:33:38;99320.09;;;12.91;100.00
56811;BME280;42691;47.234;27.494;2022-12-07T13:36:18;99318.41;;;12.90;100.00
56811;BME280;42691;47.234;27.494;2022-12-07T13:38:53;99308.06;;;12.89;100.00
56811;BME280;42691;47.234;27.494;2022-12-07T13:41:21;99310.06;;;12.85;100.00
56811;BME280;42691;47.234;27.494;2022-12-07T13:43:54;99322.06;;;12.88;100.00
56811;BME280;42691;47.234;27.494;2022-12-07T13:46:25;99307.44;;;12.85;100.00
56811;BME280;42691;47.234;27.494;2022-12-07T13:48:51;99313.59;;;12.84;100.00
56811;BME280;42691;47.234;27.494;2022-12-07T13:51:25;99311.91;;;12.83;100.00
56811;BME280;42691;47.234;27.494;2022-12-07T13:53:55;99321.72;;;12.79;100.00
56811;BME280;42691;47.234;27.494;2022-12-07T13:56:33;99321.81;;;12.78;100.00
56811;BME280;42691;47.234;27.494;2022-12-07T13:58:59;99331.53;;;12.76;100.00
56811;BME280;42691;47.234;27.494;2022-12-07T14:01:25;99330.78;;;12.74;100.00
56811;BME280;42691;47.234;27.494;2022-12-07T14:03:51;99329.09;;;12.73;100.00
56811;BME280;42691;47.234;27.494;2022-12-07T14:06:21;99326.69;;;12.70;100.00
56811;BME280;42691;47.234;27.494;2022-12-07T14:08:47;99326.69;;;12.70;100.00
56811;BME280;42691;47.234;27.494;2022-12-07T14:11:18;99329.41;;;12.68;100.00
56811;BME280;42691;47.234;27.494;2022-12-07T14:18:48;99326.19;;;12.63;100.00
56811;BME280;42691;47.234;27.494;2022-12-07T14:21:16;99317.72;;;12.60;100.00
56811;BME280;42691;47.234;27.494;2022-12-07T14:23:43;99322.19;;;12.58;100.00
56811;BME280;42691;47.234;27.494;2022-12-07T14:26:14;99315.31;;;12.57;100.00
56811;BME280;42691;47.234;27.494;2022-12-07T14:28:41;99307.56;;;12.55;100.00
56811;BME280;42691;47.234;27.494;2022-12-07T14:31:15;99316.34;;;12.54;100.00
56811;BME280;42691;47.234;27.494;2022-12-07T14:33:41;99317.38;;;12.51;100.00
56811;BME280;42691;47.234;27.494;2022-12-07T14:36:13;99326.31;;;12.47;100.00
56811;BME280;42691;47.234;27.494;2022-12-07T14:38:39;99328.19;;;12.45;100.00
56811;BME280;42691;47.234;27.494;2022-12-07T14:41:16;99332.00;;;12.40;100.00